createdAt,value
2023-05-20T00:00:50.334Z,9.83
2023-05-20T00:03:17.978Z,9.63
2023-05-20T00:05:45.785Z,9.90
2023-05-20T00:08:13.716Z,9.00
2023-05-20T00:10:41.251Z,9.63
2023-05-20T00:13:09.486Z,11.50
2023-05-20T00:15:37.136Z,10.00
2023-05-20T00:18:05.592Z,10.80
2023-05-20T00:20:33.858Z,8.80
2023-05-20T00:23:01.230Z,8.77
2023-05-20T00:25:30.306Z,9.53
2023-05-20T00:27:57.740Z,9.97
2023-05-20T00:30:25.261Z,11.50
2023-05-20T00:32:52.736Z,8.93
2023-05-20T00:35:20.663Z,14.43
2023-05-20T00:37:48.135Z,8.87
2023-05-20T00:40:16.038Z,10.03
2023-05-20T00:42:43.813Z,9.03
2023-05-20T00:45:11.457Z,9.20
2023-05-20T00:47:39.546Z,11.80
2023-05-20T00:50:08.158Z,13.67
2023-05-20T00:52:35.768Z,10.27
2023-05-20T00:55:03.892Z,10.57
2023-05-20T00:57:31.398Z,9.10
2023-05-20T00:59:59.906Z,9.90
2023-05-20T01:02:27.875Z,14.10
2023-05-20T01:04:56.498Z,12.53
2023-05-20T01:07:25.260Z,10.50
2023-05-20T01:09:54.056Z,9.20
2023-05-20T01:12:25.794Z,10.70
2023-05-20T01:15:00.362Z,9.27
2023-05-20T01:17:29.358Z,10.80
2023-05-20T01:19:57.231Z,9.13
2023-05-20T01:22:26.112Z,10.73
2023-05-20T01:24:53.614Z,9.07
2023-05-20T01:27:22.468Z,14.70
2023-05-20T01:29:53.548Z,9.60
2023-05-20T01:32:25.845Z,10.47
2023-05-20T01:34:53.921Z,9.93
2023-05-20T01:37:22.820Z,9.73
2023-05-20T01:39:50.998Z,13.43
2023-05-20T01:42:20.163Z,11.43
2023-05-20T01:44:47.575Z,9.90
2023-05-20T01:47:15.085Z,10.20
2023-05-20T01:49:42.518Z,12.10
2023-05-20T01:52:09.952Z,10.17
2023-05-20T01:54:37.379Z,14.60
2023-05-20T01:57:04.887Z,12.03
2023-05-20T01:59:32.365Z,10.33
2023-05-20T02:01:59.831Z,10.90
2023-05-20T02:04:27.686Z,11.50
2023-05-20T02:06:55.701Z,9.73
2023-05-20T02:09:23.486Z,10.17
2023-05-20T02:11:51.013Z,10.60
2023-05-20T02:14:18.364Z,11.60
2023-05-20T02:16:47.808Z,9.50
2023-05-20T02:19:17.056Z,10.47
2023-05-20T02:21:46.197Z,10.73
2023-05-20T02:24:13.629Z,10.00
2023-05-20T02:26:41.238Z,12.13
2023-05-20T02:29:08.668Z,15.90
2023-05-20T02:31:36.117Z,11.13
2023-05-20T02:34:04.532Z,9.70
2023-05-20T02:36:32.338Z,13.60
2023-05-20T02:39:01.029Z,10.60
2023-05-20T02:41:28.463Z,10.97
2023-05-20T02:43:55.884Z,11.37
2023-05-20T02:46:23.308Z,10.00
2023-05-20T02:48:50.699Z,14.43
2023-05-20T02:51:18.121Z,10.33
2023-05-20T02:53:45.636Z,11.97
2023-05-20T02:56:13.120Z,13.47
2023-05-20T02:58:41.519Z,11.60
2023-05-20T03:01:09.055Z,10.80
2023-05-20T03:03:37.953Z,11.40
2023-05-20T03:06:05.391Z,11.57
2023-05-20T03:08:33.898Z,14.53
2023-05-20T03:11:01.501Z,11.10
2023-05-20T03:13:28.957Z,15.23
2023-05-20T03:15:56.453Z,11.30
2023-05-20T03:18:23.999Z,11.77
2023-05-20T03:20:51.448Z,11.43
2023-05-20T03:23:18.877Z,11.83
2023-05-20T03:25:46.583Z,11.57
2023-05-20T03:28:14.013Z,15.07
2023-05-20T03:30:41.516Z,12.67
2023-05-20T03:33:08.982Z,11.40
2023-05-20T03:35:36.597Z,12.10
2023-05-20T03:38:04.156Z,10.60
2023-05-20T03:40:31.600Z,10.90
2023-05-20T03:42:59.031Z,10.30
2023-05-20T03:45:26.471Z,13.47
2023-05-20T03:47:53.918Z,15.00
2023-05-20T03:50:21.311Z,12.73
2023-05-20T03:52:48.753Z,12.90
2023-05-20T03:55:16.985Z,12.40
2023-05-20T03:57:44.985Z,12.67
2023-05-20T04:00:14.452Z,13.33
2023-05-20T04:02:42.494Z,12.13
2023-05-20T04:05:10.180Z,13.77
2023-05-20T04:07:37.620Z,11.63
2023-05-20T04:10:05.706Z,13.13
2023-05-20T04:12:33.132Z,18.07
2023-05-20T04:15:04.006Z,13.33
2023-05-20T04:17:31.742Z,14.83
2023-05-20T04:20:02.332Z,14.07
2023-05-20T04:22:29.755Z,13.03
2023-05-20T04:24:57.192Z,11.83
2023-05-20T04:27:25.595Z,12.07
2023-05-20T04:29:55.343Z,12.40
2023-05-20T04:32:22.766Z,11.50
2023-05-20T04:34:50.978Z,12.20
2023-05-20T04:37:18.952Z,12.70
2023-05-20T04:39:48.185Z,11.50
2023-05-20T04:42:15.609Z,12.10
2023-05-20T04:44:43.031Z,14.03
2023-05-20T04:47:10.475Z,11.50
2023-05-20T04:49:38.735Z,12.50
2023-05-20T04:52:06.239Z,12.50
2023-05-20T04:54:33.661Z,13.47
2023-05-20T04:57:01.372Z,12.00
2023-05-20T04:59:28.864Z,13.93
2023-05-20T05:01:56.392Z,14.20
2023-05-20T05:04:24.202Z,11.87
2023-05-20T05:06:51.686Z,13.73
2023-05-20T05:09:19.098Z,12.83
2023-05-20T05:11:46.509Z,12.87
2023-05-20T05:14:13.946Z,12.97
2023-05-20T05:16:41.485Z,12.33
2023-05-20T05:19:09.002Z,12.63
2023-05-20T05:21:36.531Z,14.33
2023-05-20T05:24:03.968Z,12.47
2023-05-20T05:26:31.373Z,13.97
2023-05-20T05:28:58.827Z,11.77
2023-05-20T05:31:26.495Z,14.50
2023-05-20T05:33:53.912Z,18.40
2023-05-20T05:36:21.325Z,15.07
2023-05-20T05:38:48.691Z,17.63
2023-05-20T05:41:16.104Z,13.87
2023-05-20T05:43:43.557Z,11.90
2023-05-20T05:46:11.129Z,11.90
2023-05-20T05:48:38.638Z,11.80
2023-05-20T05:51:06.043Z,11.30
2023-05-20T05:53:33.467Z,12.97
2023-05-20T05:56:00.886Z,12.27
2023-05-20T05:58:28.780Z,12.10
2023-05-20T06:00:56.217Z,14.77
2023-05-20T06:03:23.876Z,15.57
2023-05-20T06:05:51.318Z,13.40
2023-05-20T06:08:18.748Z,13.43
2023-05-20T06:10:52.439Z,13.03
2023-05-20T06:13:20.841Z,16.10
2023-05-20T06:15:49.728Z,12.13
2023-05-20T06:18:17.157Z,16.47
2023-05-20T06:20:44.596Z,11.70
2023-05-20T06:23:12.004Z,11.97
2023-05-20T06:25:39.808Z,13.30
2023-05-20T06:28:08.217Z,13.90
2023-05-20T06:30:35.704Z,13.40
2023-05-20T06:33:03.261Z,14.13
2023-05-20T06:35:30.762Z,13.40
2023-05-20T06:37:59.159Z,12.90
2023-05-20T06:40:27.194Z,12.87
2023-05-20T06:42:54.768Z,13.03
2023-05-20T06:45:22.253Z,13.57
2023-05-20T06:47:49.771Z,16.70
2023-05-20T06:50:17.162Z,11.90
2023-05-20T06:52:44.600Z,14.57
2023-05-20T06:55:12.683Z,14.80
2023-05-20T06:57:40.119Z,13.60
2023-05-20T07:00:08.086Z,12.20
2023-05-20T07:02:36.409Z,11.50
2023-05-20T07:05:03.813Z,12.30
2023-05-20T07:07:31.225Z,11.47
2023-05-20T07:09:59.220Z,15.00
2023-05-20T07:12:26.561Z,12.87
2023-05-20T07:14:53.981Z,15.43
2023-05-20T07:17:21.408Z,16.80
2023-05-20T07:19:48.812Z,17.43
2023-05-20T07:22:16.177Z,13.70
2023-05-20T07:24:43.642Z,15.43
2023-05-20T07:27:11.083Z,15.60
2023-05-20T07:29:39.119Z,16.27
2023-05-20T07:32:06.784Z,14.63
2023-05-20T07:34:34.226Z,14.50
2023-05-20T07:37:01.585Z,13.70
2023-05-20T07:39:29.005Z,14.20
2023-05-20T07:41:56.417Z,18.17
2023-05-20T07:44:23.999Z,14.63
2023-05-20T07:46:51.371Z,14.80
2023-05-20T07:49:18.774Z,15.47
2023-05-20T07:51:46.808Z,17.67
2023-05-20T07:54:15.098Z,18.23
2023-05-20T07:56:42.509Z,15.47
2023-05-20T07:59:09.960Z,16.73
2023-05-20T08:01:37.752Z,17.57
2023-05-20T08:04:05.364Z,16.57
2023-05-20T08:06:32.894Z,16.40
2023-05-20T08:09:00.239Z,19.70
2023-05-20T08:11:27.662Z,15.37
2023-05-20T08:13:55.153Z,19.90
2023-05-20T08:16:22.900Z,16.77
2023-05-20T08:18:50.333Z,15.30
2023-05-20T08:21:17.700Z,17.83
2023-05-20T08:23:45.110Z,18.33
2023-05-20T08:26:12.521Z,17.50
2023-05-20T08:28:39.886Z,18.70
2023-05-20T08:31:07.333Z,20.63
2023-05-20T08:33:34.737Z,15.60
2023-05-20T08:36:02.141Z,15.30
2023-05-20T08:38:29.577Z,16.00
2023-05-20T08:40:57.571Z,16.30
2023-05-20T08:43:25.508Z,15.60
2023-05-20T08:45:53.174Z,19.83
2023-05-20T08:48:22.154Z,17.17
2023-05-20T08:50:51.044Z,16.30
2023-05-20T08:53:19.451Z,14.43
2023-05-20T08:55:47.644Z,14.77
2023-05-20T08:58:16.033Z,25.53
2023-05-20T09:00:43.851Z,15.70
2023-05-20T09:03:11.321Z,19.30
2023-05-20T09:05:38.714Z,16.83
2023-05-20T09:08:09.481Z,15.97
2023-05-20T09:10:37.288Z,15.30
2023-05-20T09:13:05.234Z,15.53
2023-05-20T09:15:33.333Z,14.60
2023-05-20T09:18:03.450Z,15.90
2023-05-20T09:20:31.575Z,17.93
2023-05-20T09:23:02.780Z,16.20
2023-05-20T09:25:30.289Z,16.30
2023-05-20T09:27:57.922Z,16.73
2023-05-20T09:30:26.219Z,18.23
2023-05-20T09:32:54.915Z,18.70
2023-05-20T09:35:23.834Z,16.30
2023-05-20T09:37:55.102Z,15.77
2023-05-20T09:40:29.171Z,15.97
2023-05-20T09:43:03.434Z,17.03
2023-05-20T09:45:31.324Z,17.43
2023-05-20T09:48:00.183Z,17.53
2023-05-20T09:50:29.189Z,19.40
2023-05-20T09:52:56.605Z,16.80
2023-05-20T09:55:24.913Z,16.80
2023-05-20T09:57:52.393Z,14.80
2023-05-20T10:00:20.122Z,18.10
2023-05-20T10:02:49.204Z,16.47
2023-05-20T10:05:18.513Z,17.93
2023-05-20T10:08:04.140Z,15.03
2023-05-20T10:10:48.374Z,14.80
2023-05-20T10:13:19.992Z,16.07
2023-05-20T10:15:48.977Z,16.53
2023-05-20T10:18:20.762Z,18.33
2023-05-20T10:20:49.723Z,17.77
2023-05-20T10:23:23.796Z,18.47
2023-05-20T10:25:54.641Z,17.10
2023-05-20T10:28:38.243Z,16.10
2023-05-20T10:31:18.921Z,15.90
2023-05-20T10:33:46.838Z,14.47
2023-05-20T10:36:25.902Z,22.07
2023-05-20T10:38:54.950Z,18.23
2023-05-20T10:41:23.210Z,16.00
2023-05-20T10:43:52.216Z,14.30
2023-05-20T10:46:31.860Z,18.40
2023-05-20T10:48:48.865Z,15.83
2023-05-20T10:51:17.004Z,18.87
2023-05-20T10:53:46.045Z,15.53
2023-05-20T10:56:19.950Z,16.80
2023-05-20T10:58:48.249Z,17.40
2023-05-20T11:01:16.429Z,15.47
2023-05-20T11:03:48.051Z,18.87
2023-05-20T11:06:18.236Z,16.03
2023-05-20T11:08:46.593Z,20.53
2023-05-20T11:11:14.745Z,16.17
2023-05-20T11:13:42.254Z,17.00
2023-05-20T11:16:09.738Z,17.10
2023-05-20T11:18:37.311Z,15.40
2023-05-20T11:21:04.743Z,17.07
2023-05-20T11:23:32.376Z,21.23
2023-05-20T11:25:59.876Z,16.93
2023-05-20T11:28:27.295Z,18.23
2023-05-20T11:30:56.292Z,16.53
2023-05-20T11:33:25.312Z,15.10
2023-05-20T11:35:53.522Z,16.80
2023-05-20T11:38:21.372Z,16.53
2023-05-20T11:40:51.444Z,17.43
2023-05-20T11:43:19.766Z,15.47
2023-05-20T11:45:48.182Z,18.23
2023-05-20T11:48:15.881Z,15.90
2023-05-20T11:50:44.427Z,16.80
2023-05-20T11:53:13.409Z,16.63
2023-05-20T11:55:51.956Z,14.43
2023-05-20T11:58:20.920Z,19.10
2023-05-20T12:00:53.408Z,14.57
2023-05-20T12:03:17.914Z,15.53
2023-05-20T12:05:47.038Z,19.87
2023-05-20T12:08:14.722Z,15.53
2023-05-20T12:10:42.750Z,15.57
2023-05-20T12:13:11.346Z,17.13
2023-05-20T12:15:39.073Z,15.63
2023-05-20T12:18:06.562Z,18.07
2023-05-20T12:20:34.300Z,17.63
2023-05-20T12:23:02.246Z,16.83
2023-05-20T12:25:29.726Z,14.33
2023-05-20T12:27:57.126Z,15.37
2023-05-20T12:30:24.564Z,14.20
2023-05-20T12:32:52.543Z,17.30
2023-05-20T12:35:24.230Z,15.40
2023-05-20T12:37:51.644Z,17.83
2023-05-20T12:40:19.079Z,17.63
2023-05-20T12:42:46.510Z,18.73
2023-05-20T12:45:13.921Z,15.53
2023-05-20T12:47:41.481Z,17.30
2023-05-20T12:50:08.937Z,18.33
2023-05-20T12:52:36.348Z,18.33
2023-05-20T12:55:05.415Z,17.17
2023-05-20T12:57:32.832Z,15.60
2023-05-20T13:00:00.266Z,18.43
2023-05-20T13:02:27.736Z,16.57
2023-05-20T13:04:55.464Z,15.63
2023-05-20T13:07:22.903Z,15.97
2023-05-20T13:09:50.752Z,18.30
2023-05-20T13:12:18.161Z,17.83
2023-05-20T13:14:46.063Z,18.90
2023-05-20T13:17:13.533Z,17.00
2023-05-20T13:19:40.939Z,15.93
2023-05-20T13:22:08.939Z,18.37
2023-05-20T13:24:36.486Z,19.60
2023-05-20T13:27:04.520Z,18.93
2023-05-20T13:29:31.864Z,17.70
2023-05-20T13:32:01.610Z,16.90
2023-05-20T13:34:28.383Z,17.30
2023-05-20T13:36:55.831Z,17.17
2023-05-20T13:39:23.728Z,17.33
2023-05-20T13:41:52.761Z,20.00
2023-05-20T13:44:20.483Z,20.47
2023-05-20T13:49:27.678Z,16.83
2023-05-20T13:51:55.065Z,18.20
2023-05-20T13:54:22.434Z,18.13
2023-05-20T13:56:49.918Z,17.10
2023-05-20T13:59:17.555Z,17.03
2023-05-20T14:01:45.731Z,17.07
2023-05-20T14:04:14.167Z,15.00
2023-05-20T14:06:42.041Z,15.57
2023-05-20T14:09:09.432Z,15.63
2023-05-20T14:11:37.272Z,16.37
2023-05-20T14:14:04.708Z,19.57
2023-05-20T14:16:32.871Z,16.33
2023-05-20T14:19:00.452Z,16.50
2023-05-20T14:21:27.913Z,19.23
2023-05-20T14:23:55.713Z,16.63
2023-05-20T14:26:23.135Z,16.63
2023-05-20T14:28:51.917Z,15.73
2023-05-20T14:31:19.343Z,16.87
2023-05-20T14:33:47.138Z,15.87
2023-05-20T14:36:14.661Z,16.07
2023-05-20T14:38:42.098Z,17.40
2023-05-20T14:41:09.531Z,15.10
2023-05-20T14:43:36.982Z,16.10
2023-05-20T14:46:04.462Z,15.93
2023-05-20T14:48:31.894Z,19.83
2023-05-20T14:50:59.372Z,19.30
2023-05-20T14:53:26.795Z,15.67
2023-05-20T14:55:54.219Z,16.33
2023-05-20T14:58:21.644Z,20.83
2023-05-20T15:00:49.124Z,18.37
2023-05-20T15:03:16.579Z,15.17
2023-05-20T15:05:44.105Z,17.27
2023-05-20T15:08:11.722Z,17.77
2023-05-20T15:10:39.280Z,15.60
2023-05-20T15:13:06.667Z,15.57
2023-05-20T15:15:34.695Z,16.50
2023-05-20T15:18:02.196Z,16.40
2023-05-20T15:20:29.821Z,16.17
2023-05-20T15:22:59.155Z,17.60
2023-05-20T15:25:26.641Z,17.77
2023-05-20T15:27:53.991Z,16.57
2023-05-20T15:30:22.667Z,20.43
2023-05-20T15:32:50.192Z,16.63
2023-05-20T15:35:18.156Z,17.60
2023-05-20T15:37:45.524Z,16.93
2023-05-20T15:40:13.058Z,15.27
2023-05-20T15:42:40.624Z,16.70
2023-05-20T15:45:08.230Z,19.73
2023-05-20T15:47:35.700Z,15.00
2023-05-20T15:50:05.069Z,16.60
2023-05-20T15:52:32.524Z,16.80
2023-05-20T15:55:00.528Z,16.57
2023-05-20T15:57:29.120Z,17.53
2023-05-20T15:59:57.749Z,18.47
2023-05-20T16:02:25.525Z,15.87
2023-05-20T16:04:53.049Z,16.47
2023-05-20T16:07:20.483Z,15.60
2023-05-20T16:09:47.890Z,16.20
2023-05-20T16:12:16.693Z,17.80
2023-05-20T16:14:44.701Z,18.23
2023-05-20T16:17:12.463Z,17.83
2023-05-20T16:19:39.914Z,17.53
2023-05-20T16:22:09.066Z,16.80
2023-05-20T16:24:36.497Z,20.87
2023-05-20T16:27:03.995Z,19.40
2023-05-20T16:29:31.411Z,20.17
2023-05-20T16:31:58.882Z,17.40
2023-05-20T16:34:26.374Z,18.87
2023-05-20T16:36:53.744Z,20.40
2023-05-20T16:39:21.164Z,17.73
2023-05-20T16:41:48.578Z,17.13
2023-05-20T16:44:16.447Z,18.20
2023-05-20T16:46:44.304Z,18.03
2023-05-20T16:49:11.721Z,18.30
2023-05-20T16:51:39.079Z,17.43
2023-05-20T16:54:06.625Z,18.10
2023-05-20T16:56:35.078Z,19.40
2023-05-20T16:59:02.925Z,19.70
2023-05-20T17:01:30.432Z,17.70
2023-05-20T17:03:57.889Z,16.90
2023-05-20T17:06:25.315Z,16.80
2023-05-20T17:08:52.747Z,18.10
2023-05-20T17:11:20.637Z,16.13
2023-05-20T17:13:48.063Z,17.17
2023-05-20T17:16:15.684Z,16.40
2023-05-20T17:18:43.082Z,17.20
2023-05-20T17:21:10.779Z,17.63
2023-05-20T17:23:38.212Z,20.17
2023-05-20T17:26:05.646Z,16.40
2023-05-20T17:28:33.074Z,18.60
2023-05-20T17:31:00.678Z,17.13
2023-05-20T17:33:28.180Z,16.87
2023-05-20T17:35:56.296Z,18.40
2023-05-20T17:38:25.301Z,18.67
2023-05-20T17:40:53.454Z,16.73
2023-05-20T17:43:21.464Z,18.17
2023-05-20T17:45:49.047Z,17.77
2023-05-20T17:48:16.517Z,16.00
2023-05-20T17:50:44.163Z,17.60
2023-05-20T17:53:11.587Z,19.47
2023-05-20T17:55:39.481Z,18.00
2023-05-20T17:58:10.021Z,17.73
2023-05-20T18:00:39.074Z,19.60
2023-05-20T18:03:06.620Z,21.87
2023-05-20T18:05:34.222Z,19.60
2023-05-20T18:08:01.948Z,18.53
2023-05-20T18:10:29.413Z,20.10
2023-05-20T18:12:56.866Z,20.90
2023-05-20T18:15:24.278Z,21.87
2023-05-20T18:17:52.783Z,19.07
2023-05-20T18:20:20.473Z,18.17
2023-05-20T18:22:49.550Z,20.63
2023-05-20T18:25:16.967Z,20.77
2023-05-20T18:27:44.325Z,18.40
2023-05-20T18:30:11.699Z,21.50
2023-05-20T18:32:39.331Z,22.27
2023-05-20T18:35:07.021Z,23.40
2023-05-20T18:37:34.515Z,21.73
2023-05-20T18:40:02.123Z,20.30
2023-05-20T18:42:29.540Z,19.53
2023-05-20T18:44:56.968Z,20.70
2023-05-20T18:47:24.439Z,20.43
2023-05-20T18:49:51.816Z,23.43
2023-05-20T18:52:19.241Z,22.67
2023-05-20T18:54:47.157Z,20.33
2023-05-20T18:57:14.535Z,20.87
2023-05-20T18:59:41.945Z,21.57
2023-05-20T19:02:09.373Z,20.40
2023-05-20T19:04:36.829Z,21.97
2023-05-20T19:07:04.237Z,22.00
2023-05-20T19:09:31.669Z,28.47
2023-05-20T19:11:59.187Z,22.30
2023-05-20T19:14:26.808Z,22.33
2023-05-20T19:16:54.276Z,22.77
2023-05-20T19:19:21.794Z,25.50
2023-05-20T19:21:49.190Z,25.23
2023-05-20T19:24:17.575Z,23.13
2023-05-20T19:26:45.003Z,22.80
2023-05-20T19:29:14.066Z,22.60
2023-05-20T19:31:43.046Z,23.57
2023-05-20T19:34:10.419Z,25.67
2023-05-20T19:36:38.202Z,24.03
2023-05-20T19:39:05.721Z,23.87
2023-05-20T19:41:33.118Z,23.30
2023-05-20T19:44:01.224Z,27.33
2023-05-20T19:46:28.617Z,30.60
2023-05-20T19:48:56.470Z,27.10
2023-05-20T19:51:23.896Z,23.83
2023-05-20T19:53:51.395Z,27.67
2023-05-20T19:56:20.459Z,26.50
2023-05-20T19:58:48.255Z,26.03
2023-05-20T20:01:16.821Z,24.67
2023-05-20T20:03:45.771Z,25.20
2023-05-20T20:06:13.459Z,24.70
2023-05-20T20:08:41.388Z,24.80
2023-05-20T20:11:08.983Z,26.30
2023-05-20T20:13:36.417Z,25.70
2023-05-20T20:16:03.869Z,25.93
2023-05-20T20:18:32.350Z,29.80
2023-05-20T20:21:00.424Z,27.37
2023-05-20T20:23:27.812Z,26.37
2023-05-20T20:25:56.572Z,25.90
2023-05-20T20:28:23.925Z,26.10
2023-05-20T20:30:51.387Z,29.60
2023-05-20T20:33:19.373Z,25.80
2023-05-20T20:35:47.131Z,28.97
2023-05-20T20:38:15.234Z,29.33
2023-05-20T20:40:42.797Z,27.90
2023-05-20T20:43:10.926Z,28.87
2023-05-20T20:45:38.450Z,26.63
2023-05-20T20:48:07.509Z,29.40
2023-05-20T20:50:35.625Z,29.20
2023-05-20T20:53:03.137Z,32.23
2023-05-20T20:55:30.925Z,30.27
2023-05-20T20:58:00.293Z,30.60
2023-05-20T21:00:27.727Z,33.43
2023-05-20T21:02:55.182Z,28.60
2023-05-20T21:05:24.206Z,31.97
2023-05-20T21:07:53.214Z,28.07
2023-05-20T21:10:20.991Z,27.20
2023-05-20T21:12:48.446Z,29.80
2023-05-20T21:15:15.932Z,31.00
2023-05-20T21:17:43.436Z,30.83
2023-05-20T21:20:11.891Z,27.47
2023-05-20T21:22:39.246Z,30.10
2023-05-20T21:25:07.066Z,29.37
2023-05-20T21:27:34.423Z,33.40
2023-05-20T21:30:01.922Z,29.83
2023-05-20T21:32:29.389Z,30.70
2023-05-20T21:34:58.344Z,28.80
2023-05-20T21:37:25.933Z,32.03
2023-05-20T21:39:53.365Z,30.40
2023-05-20T21:42:20.798Z,29.00
2023-05-20T21:44:48.221Z,31.37
2023-05-20T21:47:16.042Z,29.83
2023-05-20T21:49:43.477Z,31.53
2023-05-20T21:52:11.366Z,30.87
2023-05-20T21:54:38.790Z,31.30
2023-05-20T21:57:06.251Z,30.00
2023-05-20T21:59:34.043Z,29.33
2023-05-20T22:02:01.617Z,31.20
2023-05-20T22:04:29.073Z,35.50
2023-05-20T22:06:57.074Z,29.10
2023-05-20T22:09:24.434Z,26.23
2023-05-20T22:11:52.522Z,32.50
2023-05-20T22:14:19.939Z,29.77
2023-05-20T22:16:48.259Z,28.87
2023-05-20T22:19:16.336Z,35.13
2023-05-20T22:24:14.073Z,28.60
2023-05-20T22:26:41.451Z,31.90
2023-05-20T22:29:08.952Z,31.80
2023-05-20T22:31:37.833Z,28.93
2023-05-20T22:34:05.649Z,30.40
2023-05-20T22:36:35.955Z,29.57
2023-05-20T22:39:04.224Z,29.77
2023-05-20T22:41:32.088Z,33.83
2023-05-20T22:43:59.511Z,32.87
2023-05-20T22:46:26.985Z,33.07
2023-05-20T22:48:55.133Z,29.43
2023-05-20T22:51:24.317Z,30.13
2023-05-20T22:53:51.740Z,28.10
2023-05-20T22:56:19.768Z,30.53
2023-05-20T22:58:47.156Z,35.13
2023-05-20T23:01:16.817Z,32.10
2023-05-20T23:03:45.768Z,31.60
2023-05-20T23:06:13.190Z,30.03
2023-05-20T23:08:42.249Z,31.97
2023-05-20T23:11:09.689Z,27.90
2023-05-20T23:13:37.295Z,29.27
2023-05-20T23:16:05.842Z,28.80
2023-05-20T23:18:33.296Z,30.33
2023-05-20T23:21:00.715Z,28.60
2023-05-20T23:23:31.651Z,30.70
2023-05-20T23:25:57.761Z,30.13
2023-05-20T23:28:25.199Z,26.93
2023-05-20T23:30:52.643Z,32.20
2023-05-20T23:33:24.857Z,29.97
2023-05-20T23:35:49.079Z,31.53
2023-05-20T23:38:16.879Z,31.43
2023-05-20T23:40:44.328Z,30.80
2023-05-20T23:43:11.736Z,27.40
2023-05-20T23:45:39.192Z,27.20
2023-05-20T23:48:08.245Z,31.17
2023-05-20T23:50:35.683Z,29.27
2023-05-20T23:53:03.489Z,31.30
2023-05-20T23:55:31.671Z,29.33
2023-05-20T23:57:59.417Z,32.37
